createdAt,value
2018-04-25T00:02:09.874Z,162307.00
2018-04-25T00:04:37.449Z,162272.27
2018-04-25T00:07:05.026Z,162272.27
2018-04-25T00:09:32.629Z,162287.97
2018-04-25T00:12:00.199Z,162318.09
2018-04-25T00:14:27.792Z,162316.78
2018-04-25T00:16:55.417Z,162287.97
2018-04-25T00:19:23.146Z,162303.69
2018-04-25T00:21:50.690Z,162293.91
2018-04-25T00:24:18.636Z,162292.55
2018-04-25T00:26:46.376Z,162322.72
2018-04-25T00:29:13.919Z,162308.97
2018-04-25T00:31:41.595Z,162295.86
2018-04-25T00:34:09.145Z,162294.56
2018-04-25T00:36:36.724Z,162293.20
2018-04-25T00:39:04.379Z,162329.89
2018-04-25T00:41:31.942Z,162343.05
2018-04-25T00:43:59.530Z,162310.27
2018-04-25T00:46:27.085Z,162308.31
2018-04-25T00:48:54.945Z,162326.63
2018-04-25T00:51:22.495Z,162313.53
2018-04-25T00:53:50.044Z,162333.22
2018-04-25T00:56:17.625Z,162299.12
2018-04-25T00:58:45.260Z,162297.81
2018-04-25T01:01:12.818Z,162316.78
2018-04-25T01:03:40.365Z,162311.56
2018-04-25T01:06:08.165Z,162310.91
2018-04-25T01:08:35.808Z,162329.89
2018-04-25T01:11:03.506Z,162321.41
2018-04-25T01:13:31.159Z,162295.86
2018-04-25T01:15:58.859Z,162304.34
2018-04-25T01:18:26.417Z,162314.83
2018-04-25T01:20:57.547Z,162329.89
2018-04-25T01:23:25.148Z,162320.11
2018-04-25T01:26:00.083Z,162355.50
2018-04-25T01:28:31.412Z,162312.88
2018-04-25T01:31:02.043Z,162335.81
2018-04-25T01:33:31.476Z,162338.42
2018-04-25T01:36:01.878Z,162327.94
2018-04-25T01:38:32.903Z,162354.80
2018-04-25T01:41:15.345Z,162375.78
2018-04-25T01:43:57.833Z,162337.13
2018-04-25T01:46:36.260Z,162336.47
2018-04-25T01:52:17.701Z,162320.11
2018-04-25T01:54:57.141Z,162313.53
2018-04-25T01:57:36.485Z,162308.31
2018-04-25T02:00:15.850Z,162310.27
2018-04-25T02:02:42.855Z,162306.34
2018-04-25T02:05:10.478Z,162274.22
2018-04-25T02:07:38.174Z,162297.16
2018-04-25T02:10:05.722Z,162280.09
2018-04-25T02:12:33.468Z,162302.39
2018-04-25T02:15:01.036Z,162316.14
2018-04-25T02:17:28.572Z,162293.20
2018-04-25T02:19:56.472Z,162293.20
2018-04-25T02:22:24.005Z,162278.78
2018-04-25T02:24:51.554Z,162337.78
2018-04-25T02:27:19.131Z,162356.81
2018-04-25T02:29:46.824Z,162329.25
2018-04-25T02:32:14.779Z,162331.91
2018-04-25T02:34:42.314Z,162327.94
2018-04-25T02:37:10.074Z,162331.91
2018-04-25T02:39:37.789Z,162286.67
2018-04-25T02:42:05.354Z,162299.78
2018-04-25T02:44:33.059Z,162335.81
2018-04-25T02:47:00.604Z,162343.05
2018-04-25T02:49:28.388Z,162320.75
2018-04-25T02:51:55.970Z,162264.39
2018-04-25T02:54:23.536Z,162274.88
2018-04-25T02:56:51.854Z,162305.64
2018-04-25T02:59:19.411Z,162307.66
2018-04-25T03:01:46.950Z,162297.81
2018-04-25T03:04:14.517Z,162306.34
2018-04-25T03:06:42.083Z,162308.97
2018-04-25T03:09:09.787Z,162303.69
2018-04-25T03:11:37.542Z,162318.80
2018-04-25T03:14:05.240Z,162326.63
2018-04-25T03:16:32.867Z,162312.88
2018-04-25T03:19:00.700Z,162354.80
2018-04-25T03:21:28.477Z,162333.86
2018-04-25T03:23:56.046Z,162343.69
2018-04-25T03:26:23.600Z,162325.33
2018-04-25T03:28:51.353Z,162319.45
2018-04-25T03:31:19.178Z,162314.19
2018-04-25T03:33:46.743Z,162336.47
2018-04-25T03:36:14.304Z,162343.05
2018-04-25T03:38:41.833Z,162341.03
2018-04-25T03:41:09.420Z,162333.86
2018-04-25T03:43:36.994Z,162316.78
2018-04-25T03:46:04.947Z,162331.25
2018-04-25T03:48:32.492Z,162322.72
2018-04-25T03:51:00.031Z,162351.53
2018-04-25T03:53:27.596Z,162340.39
2018-04-25T03:55:55.130Z,162329.25
2018-04-25T03:58:22.666Z,162316.78
2018-04-25T04:00:50.367Z,162324.67
2018-04-25T04:03:17.893Z,162333.86
2018-04-25T04:05:45.425Z,162320.11
2018-04-25T04:08:13.085Z,162291.89
2018-04-25T04:10:40.683Z,162298.47
2018-04-25T04:13:08.220Z,162266.34
2018-04-25T04:15:39.589Z,162181.13
2018-04-25T04:18:08.631Z,162048.81
2018-04-25T04:20:37.647Z,161967.00
2018-04-25T04:23:05.198Z,161953.91
2018-04-25T04:25:32.900Z,161938.80
2018-04-25T04:28:00.559Z,161919.19
2018-04-25T04:30:28.238Z,161904.81
2018-04-25T04:32:55.935Z,161906.75
2018-04-25T04:35:23.692Z,161889.06
2018-04-25T04:37:51.278Z,161870.05
2018-04-25T04:40:19.348Z,161862.83
2018-04-25T04:42:46.885Z,161904.16
2018-04-25T04:45:14.434Z,161856.31
2018-04-25T04:47:42.282Z,161863.48
2018-04-25T04:50:11.206Z,161847.12
2018-04-25T04:52:38.751Z,161832.09
2018-04-25T04:55:06.313Z,161807.22
2018-04-25T04:57:33.899Z,161812.44
2018-04-25T05:00:01.441Z,161797.41
2018-04-25T05:02:29.373Z,161796.09
2018-04-25T05:04:56.931Z,161773.19
2018-04-25T05:07:24.493Z,161796.09
2018-04-25T05:09:52.486Z,161789.53
2018-04-25T05:12:20.167Z,161775.14
2018-04-25T05:14:47.945Z,161774.48
2018-04-25T05:17:15.516Z,161792.13
2018-04-25T05:19:43.067Z,161798.70
2018-04-25T05:22:10.999Z,161813.73
2018-04-25T05:24:38.739Z,161815.05
2018-04-25T05:27:06.308Z,161815.70
2018-04-25T05:29:33.900Z,161807.22
2018-04-25T05:32:01.515Z,161817.00
2018-04-25T05:34:29.145Z,161825.52
2018-04-25T05:36:56.930Z,161792.78
2018-04-25T05:39:24.464Z,161790.17
2018-04-25T05:41:52.503Z,161803.92
2018-04-25T05:44:20.058Z,161790.17
2018-04-25T05:46:47.624Z,161814.39
2018-04-25T05:49:15.630Z,161772.53
2018-04-25T05:51:43.222Z,161785.63
2018-04-25T05:54:10.937Z,161764.00
2018-04-25T05:56:38.556Z,161820.97
2018-04-25T05:59:06.093Z,161847.78
2018-04-25T06:01:33.652Z,161764.00
2018-04-25T06:04:01.230Z,161790.17
2018-04-25T06:06:28.817Z,161804.56
2018-04-25T06:08:56.912Z,161789.53
2018-04-25T06:11:24.528Z,161766.61
2018-04-25T06:13:52.081Z,161769.92
2018-04-25T06:16:20.167Z,161766.61
2018-04-25T06:18:47.705Z,161790.83
2018-04-25T06:21:15.255Z,161800.00
2018-04-25T06:23:43.282Z,161782.36
2018-04-25T06:26:10.847Z,161743.70
2018-04-25T06:28:38.624Z,161767.27
2018-04-25T06:31:06.637Z,161760.75
2018-04-25T06:33:34.181Z,161741.75
2018-04-25T06:36:01.736Z,161733.94
2018-04-25T06:38:29.322Z,161712.33
2018-04-25T06:40:56.876Z,161688.13
2018-04-25T06:43:24.461Z,161656.03
2018-04-25T06:45:52.148Z,161608.94
2018-04-25T06:48:20.339Z,161611.59
2018-04-25T06:50:47.873Z,161617.45
2018-04-25T06:53:15.412Z,161613.53
2018-04-25T06:55:42.973Z,161660.66
2018-04-25T06:58:10.501Z,161669.13
2018-04-25T07:00:38.093Z,161619.41
2018-04-25T07:03:05.648Z,161644.25
2018-04-25T07:05:33.202Z,161703.16
2018-04-25T07:08:00.831Z,161716.23
2018-04-25T07:10:28.544Z,161668.47
2018-04-25T07:12:56.101Z,161760.09
2018-04-25T07:15:23.646Z,161678.94
2018-04-25T07:17:51.755Z,161716.89
2018-04-25T07:20:19.403Z,161633.13
2018-04-25T07:22:46.941Z,161670.42
2018-04-25T07:25:14.546Z,161623.36
2018-04-25T07:27:42.270Z,161578.86
2018-04-25T07:30:09.995Z,161671.72
2018-04-25T07:32:37.562Z,161584.72
2018-04-25T07:35:05.215Z,161661.95
2018-04-25T07:37:32.779Z,161669.77
2018-04-25T07:40:00.327Z,161627.92
2018-04-25T07:42:27.891Z,161631.19
2018-04-25T07:44:55.647Z,161650.17
2018-04-25T07:47:23.206Z,161574.25
2018-04-25T07:49:50.742Z,161701.84
2018-04-25T07:52:18.351Z,161707.72
2018-04-25T07:54:45.920Z,161722.80
2018-04-25T07:57:13.458Z,161675.69
2018-04-25T07:59:41.005Z,161605.67
2018-04-25T08:02:08.619Z,161677.64
2018-04-25T08:04:36.149Z,161753.53
2018-04-25T08:07:03.782Z,161809.19
2018-04-25T08:09:31.327Z,161685.50
2018-04-25T08:11:58.864Z,161607.63
2018-04-25T08:14:38.538Z,161643.61
2018-04-25T08:17:18.031Z,161714.94
2018-04-25T08:19:57.473Z,161658.66
2018-04-25T08:22:25.002Z,161674.38
2018-04-25T08:24:53.065Z,161686.81
2018-04-25T08:27:20.604Z,161764.66
2018-04-25T08:29:48.315Z,161721.50
2018-04-25T08:32:15.923Z,161641.66
2018-04-25T08:34:43.453Z,161660.00
2018-04-25T08:37:11.250Z,161620.06
2018-04-25T08:39:38.948Z,161637.75
2018-04-25T08:42:06.485Z,161744.36
2018-04-25T08:44:34.244Z,161707.06
2018-04-25T08:47:01.980Z,161731.92
2018-04-25T08:49:29.729Z,161686.81
2018-04-25T08:51:57.322Z,161706.41
2018-04-25T08:54:25.286Z,161730.63
2018-04-25T08:56:52.812Z,161699.89
2018-04-25T08:59:20.471Z,161642.31
2018-04-25T09:01:48.205Z,161658.66
2018-04-25T09:04:16.050Z,161686.16
2018-04-25T09:06:43.757Z,161729.97
2018-04-25T09:09:11.330Z,161676.98
2018-04-25T09:11:38.869Z,161798.70
2018-04-25T09:14:06.992Z,161797.41
2018-04-25T09:16:34.533Z,161777.09
2018-04-25T09:19:02.235Z,161671.08
2018-04-25T09:21:29.807Z,161647.52
2018-04-25T09:23:57.382Z,161624.02
2018-04-25T09:26:25.166Z,161576.91
2018-04-25T09:28:52.731Z,161685.50
2018-04-25T09:31:20.368Z,161646.22
2018-04-25T09:33:47.914Z,161666.52
2018-04-25T09:36:15.468Z,161638.39
2018-04-25T09:38:43.239Z,161604.38
2018-04-25T09:41:10.769Z,161590.64
2018-04-25T09:43:38.387Z,161567.73
2018-04-25T09:46:06.125Z,161594.55
2018-04-25T09:48:33.667Z,161697.28
2018-04-25T09:51:01.294Z,161802.61
2018-04-25T09:53:29.087Z,161786.92
2018-04-25T09:55:56.659Z,161790.17
2018-04-25T09:58:24.196Z,161805.88
2018-04-25T10:00:57.973Z,161953.25
2018-04-25T10:03:25.527Z,161917.89
2018-04-25T10:05:53.303Z,161914.58
2018-04-25T10:08:20.988Z,161904.81
2018-04-25T10:10:48.599Z,161903.44
2018-04-25T10:13:16.222Z,161932.94
2018-04-25T10:15:43.784Z,162052.78
2018-04-25T10:18:11.336Z,162003.66
2018-04-25T10:20:39.255Z,162087.48
2018-04-25T10:23:06.817Z,161959.77
2018-04-25T10:25:34.384Z,162056.03
2018-04-25T10:28:01.965Z,162014.14
2018-04-25T10:30:29.577Z,162082.22
2018-04-25T10:32:57.106Z,162014.14
2018-04-25T10:35:24.895Z,161841.22
2018-04-25T10:37:52.470Z,161977.47
2018-04-25T10:40:20.016Z,161784.97
2018-04-25T10:42:47.828Z,161733.28
2018-04-25T10:45:15.491Z,161841.22
2018-04-25T10:47:43.061Z,161684.16
2018-04-25T10:50:10.622Z,161683.50
2018-04-25T10:52:38.317Z,161626.63
2018-04-25T10:55:05.880Z,161584.72
2018-04-25T10:57:33.418Z,161644.25
2018-04-25T11:00:01.010Z,161716.23
2018-04-25T11:02:28.604Z,161832.75
2018-04-25T11:04:56.168Z,162120.86
2018-04-25T11:07:23.896Z,162234.22
2018-04-25T11:09:51.775Z,162211.94
2018-04-25T11:12:19.306Z,161932.94
2018-04-25T11:14:46.853Z,161938.80
2018-04-25T11:17:14.558Z,161889.70
2018-04-25T11:19:42.208Z,161867.44
2018-04-25T11:22:09.888Z,161781.70
2018-04-25T11:24:37.436Z,161758.14
2018-04-25T11:27:04.981Z,161788.88
2018-04-25T11:29:32.538Z,161752.22
2018-04-25T11:32:00.137Z,161737.84
2018-04-25T11:34:27.657Z,161711.67
2018-04-25T11:36:55.196Z,161675.69
2018-04-25T11:39:22.942Z,161706.41
2018-04-25T11:41:50.478Z,161688.77
2018-04-25T11:44:18.024Z,161721.50
2018-04-25T11:46:45.585Z,161792.78
2018-04-25T11:49:13.529Z,161856.31
2018-04-25T11:51:41.061Z,161933.59
2018-04-25T11:54:08.635Z,162078.31
2018-04-25T11:56:36.238Z,161935.55
2018-04-25T11:59:03.813Z,161958.47
2018-04-25T12:01:31.502Z,162021.31
2018-04-25T12:03:59.057Z,161916.59
2018-04-25T12:06:26.641Z,161921.81
2018-04-25T12:08:54.294Z,162097.27
2018-04-25T12:11:21.833Z,162236.83
2018-04-25T12:13:49.419Z,162269.66
2018-04-25T12:16:16.983Z,162183.08
2018-04-25T12:18:44.572Z,162105.16
2018-04-25T12:21:12.114Z,161966.34
2018-04-25T12:23:39.678Z,162003.00
2018-04-25T12:26:07.208Z,161988.56
2018-04-25T12:28:35.417Z,162128.73
2018-04-25T12:31:02.959Z,162384.31
2018-04-25T12:33:30.489Z,162375.78
2018-04-25T12:35:58.206Z,162480.67
2018-04-25T12:38:25.750Z,162247.38
2018-04-25T12:40:53.290Z,162166.06
2018-04-25T12:43:20.900Z,162159.48
2018-04-25T12:45:48.461Z,162068.47
2018-04-25T12:48:16.215Z,162094.02
2018-04-25T12:50:43.784Z,162022.63
2018-04-25T12:53:11.394Z,161981.39
2018-04-25T12:55:38.946Z,161963.69
2018-04-25T12:58:06.495Z,161921.16
2018-04-25T13:00:34.193Z,162014.14
2018-04-25T13:03:01.757Z,161911.97
2018-04-25T13:05:29.301Z,161936.19
2018-04-25T13:07:56.863Z,161938.80
2018-04-25T13:10:24.578Z,161916.59
2018-04-25T13:12:52.147Z,161892.38
2018-04-25T13:15:19.695Z,161917.23
2018-04-25T13:17:47.252Z,161913.94
2018-04-25T13:20:15.069Z,161923.11
2018-04-25T13:22:42.646Z,161991.22
2018-04-25T13:25:10.357Z,161957.16
2018-04-25T13:27:37.906Z,161985.30
2018-04-25T13:30:05.622Z,162089.44
2018-04-25T13:32:33.355Z,162098.58
2018-04-25T13:35:00.899Z,162061.25
2018-04-25T13:37:28.429Z,162010.83
2018-04-25T13:39:55.982Z,161970.25
2018-04-25T13:42:23.537Z,161887.75
2018-04-25T13:44:51.103Z,161991.87
2018-04-25T13:47:19.110Z,161929.67
2018-04-25T13:49:46.872Z,161987.25
2018-04-25T13:52:14.411Z,162075.05
2018-04-25T13:54:42.229Z,162241.45
2018-04-25T13:57:09.779Z,162166.72
2018-04-25T13:59:37.519Z,162251.94
2018-04-25T14:02:05.098Z,162373.83
2018-04-25T14:04:32.633Z,162483.94
2018-04-25T14:07:00.497Z,162210.63
2018-04-25T14:09:28.277Z,162361.38
2018-04-25T14:11:55.809Z,162323.37
2018-04-25T14:14:23.374Z,162227.00
2018-04-25T14:16:50.995Z,162548.19
2018-04-25T14:19:18.620Z,162468.88
2018-04-25T14:21:46.163Z,162489.87
2018-04-25T14:24:13.922Z,162289.28
2018-04-25T14:26:41.698Z,162250.62
2018-04-25T14:29:09.424Z,162192.25
2018-04-25T14:31:37.080Z,162118.25
2018-04-25T14:34:04.805Z,161997.75
2018-04-25T14:36:32.610Z,162040.98
2018-04-25T14:39:00.154Z,161765.97
2018-04-25T14:41:27.882Z,161529.81
2018-04-25T14:43:55.634Z,161491.23
2018-04-25T14:46:23.173Z,161370.22
2018-04-25T14:48:50.986Z,161399.62
2018-04-25T14:51:18.532Z,161346.69
2018-04-25T14:53:46.116Z,161501.00
2018-04-25T14:56:13.661Z,161578.22
2018-04-25T14:58:41.286Z,161676.34
2018-04-25T15:01:08.851Z,161573.59
2018-04-25T15:03:36.393Z,161557.92
2018-04-25T15:06:05.026Z,161695.94
2018-04-25T15:08:32.650Z,161796.09
2018-04-25T15:11:00.477Z,161845.83
2018-04-25T15:13:28.026Z,161924.41
2018-04-25T15:15:55.613Z,161891.02
2018-04-25T15:18:23.144Z,161932.28
2018-04-25T15:20:51.098Z,161856.31
2018-04-25T15:23:18.634Z,161929.03
2018-04-25T15:25:46.183Z,161820.97
2018-04-25T15:28:14.127Z,161739.80
2018-04-25T15:30:41.837Z,161813.09
2018-04-25T15:33:09.387Z,161708.36
2018-04-25T15:35:36.961Z,161809.19
2018-04-25T15:38:04.541Z,161881.23
2018-04-25T15:40:32.078Z,161980.73
2018-04-25T15:42:59.608Z,161908.06
2018-04-25T15:45:27.388Z,161917.89
2018-04-25T15:47:55.199Z,161990.56
2018-04-25T15:50:22.919Z,161961.72
2018-04-25T15:52:51.063Z,162081.56
2018-04-25T15:55:18.608Z,162093.36
2018-04-25T15:57:46.154Z,162137.27
2018-04-25T16:00:13.880Z,162181.13
2018-04-25T16:02:41.423Z,162238.19
2018-04-25T16:05:09.141Z,162215.84
2018-04-25T16:07:36.809Z,162125.47
2018-04-25T16:10:04.555Z,161989.27
2018-04-25T16:12:32.529Z,161968.95
2018-04-25T16:15:00.071Z,161955.86
2018-04-25T16:17:27.621Z,162084.83
2018-04-25T16:19:55.192Z,162087.48
2018-04-25T16:22:22.913Z,162162.16
2018-04-25T16:24:50.643Z,162171.28
2018-04-25T16:27:18.237Z,162138.56
2018-04-25T16:29:45.939Z,162086.84
2018-04-25T16:32:13.542Z,162200.14
2018-04-25T16:34:41.088Z,162247.38
2018-04-25T16:37:08.627Z,162234.88
2018-04-25T16:39:36.244Z,162234.22
2018-04-25T16:42:03.785Z,162189.00
2018-04-25T16:44:31.498Z,162188.34
2018-04-25T16:46:59.230Z,162238.84
2018-04-25T16:49:26.996Z,162268.95
2018-04-25T16:51:54.566Z,162211.28
2018-04-25T16:54:22.138Z,162177.20
2018-04-25T16:56:49.689Z,162218.45
2018-04-25T16:59:17.279Z,162124.81
2018-04-25T17:01:44.862Z,162114.33
2018-04-25T17:04:12.424Z,162119.55
2018-04-25T17:06:40.207Z,162101.23
2018-04-25T17:09:07.758Z,162151.02
2018-04-25T17:11:35.315Z,162072.39
2018-04-25T17:14:02.883Z,162078.31
2018-04-25T17:16:30.433Z,162012.14
2018-04-25T17:18:57.975Z,162016.75
2018-04-25T17:21:25.733Z,161960.42
2018-04-25T17:23:53.482Z,161989.27
2018-04-25T17:26:21.013Z,161893.67
2018-04-25T17:28:48.617Z,161934.89
2018-04-25T17:31:16.418Z,161914.58
2018-04-25T17:33:44.148Z,161880.58
2018-04-25T17:36:11.700Z,161869.41
2018-04-25T17:38:39.247Z,161889.70
2018-04-25T17:41:06.837Z,161901.50
2018-04-25T17:43:34.814Z,161868.09
2018-04-25T17:46:02.340Z,161822.92
2018-04-25T17:48:29.869Z,161832.09
2018-04-25T17:50:57.475Z,161836.66
2018-04-25T17:53:25.026Z,161833.39
2018-04-25T17:55:52.901Z,161837.31
2018-04-25T17:58:20.435Z,161831.44
2018-04-25T18:00:47.986Z,161887.09
2018-04-25T18:03:15.633Z,161867.44
2018-04-25T18:05:43.125Z,161887.75
2018-04-25T18:08:10.869Z,161889.06
2018-04-25T18:10:38.647Z,161864.12
2018-04-25T18:13:06.320Z,161862.83
2018-04-25T18:15:33.863Z,161807.88
2018-04-25T18:18:01.426Z,161840.56
2018-04-25T18:20:28.966Z,161927.67
2018-04-25T18:22:56.521Z,161927.67
2018-04-25T18:25:24.115Z,161932.28
2018-04-25T18:27:51.826Z,161805.22
2018-04-25T18:30:19.379Z,161796.09
2018-04-25T18:32:48.913Z,161706.41
2018-04-25T18:35:16.739Z,161693.33
2018-04-25T18:37:44.315Z,161654.73
2018-04-25T18:40:12.314Z,161651.48
2018-04-25T18:42:39.881Z,161610.23
2018-04-25T18:45:07.462Z,161561.83
2018-04-25T18:47:35.440Z,161539.63
2018-04-25T18:50:02.998Z,161518.03
2018-04-25T18:52:30.548Z,161506.91
2018-04-25T18:54:58.121Z,161498.39
2018-04-25T18:57:25.860Z,161476.16
2018-04-25T18:59:53.394Z,161443.44
2018-04-25T19:02:21.128Z,161434.94
2018-04-25T19:04:48.950Z,161423.81
2018-04-25T19:07:16.829Z,161389.80
2018-04-25T19:09:44.409Z,161349.94
2018-04-25T19:12:11.946Z,161313.98
2018-04-25T19:14:39.835Z,161297.00
2018-04-25T19:17:07.631Z,161226.41
2018-04-25T19:19:35.406Z,161210.09
2018-04-25T19:22:02.976Z,161137.56
2018-04-25T19:24:30.701Z,161085.91
2018-04-25T19:26:58.238Z,161061.09
2018-04-25T19:29:25.827Z,161042.83
2018-04-25T19:31:53.810Z,161026.47
2018-04-25T19:34:21.350Z,161006.25
2018-04-25T19:36:49.140Z,160997.75
2018-04-25T19:39:16.726Z,160970.94
2018-04-25T19:41:44.262Z,160950.67
2018-04-25T19:44:11.851Z,160940.22
2018-04-25T19:46:39.886Z,160931.11
2018-04-25T19:49:07.409Z,160908.25
2018-04-25T19:51:35.087Z,160889.94
2018-04-25T19:54:02.685Z,160880.78
2018-04-25T19:56:31.150Z,160853.38
2018-04-25T19:58:58.703Z,160830.53
2018-04-25T20:01:26.734Z,160815.53
2018-04-25T20:03:54.330Z,160799.22
2018-04-25T20:06:21.891Z,160786.17
2018-04-25T20:08:49.639Z,160774.42
2018-04-25T20:11:17.317Z,160766.56
2018-04-25T20:13:45.169Z,160762.67
2018-04-25T20:16:12.657Z,160751.56
2018-04-25T20:18:40.193Z,160746.97
2018-04-25T20:21:07.903Z,160734.56
2018-04-25T20:23:35.451Z,160720.22
2018-04-25T20:26:03.261Z,160713.72
2018-04-25T20:28:31.047Z,160701.33
2018-04-25T20:30:58.819Z,160704.56
2018-04-25T20:33:26.357Z,160728.72
2018-04-25T20:35:53.951Z,160690.22
2018-04-25T20:38:21.514Z,160698.72
2018-04-25T20:40:49.045Z,160709.13
2018-04-25T20:43:17.002Z,160720.87
2018-04-25T20:45:44.536Z,160703.28
2018-04-25T20:48:12.068Z,160684.33
2018-04-25T20:50:39.651Z,160682.38
2018-04-25T20:53:07.218Z,160657.58
2018-04-25T20:55:34.772Z,160641.94
2018-04-25T20:58:02.422Z,160647.78
2018-04-25T21:00:29.954Z,160624.94
2018-04-25T21:02:57.693Z,160605.41
2018-04-25T21:05:25.224Z,160600.16
2018-04-25T21:07:52.761Z,160596.91
2018-04-25T21:10:20.600Z,160586.45
2018-04-25T21:12:48.168Z,160712.42
2018-04-25T21:15:15.841Z,160712.42
2018-04-25T21:17:43.403Z,160790.06
2018-04-25T21:20:10.954Z,160825.33
2018-04-25T21:22:38.515Z,160848.19
2018-04-25T21:25:06.055Z,160855.33
2018-04-25T21:27:33.843Z,160840.33
2018-04-25T21:30:01.412Z,160848.83
2018-04-25T21:32:28.958Z,160844.94
2018-04-25T21:34:56.514Z,160880.78
2018-04-25T21:37:24.064Z,160923.91
2018-04-25T21:39:51.653Z,160938.27
2018-04-25T21:42:19.182Z,160940.22
2018-04-25T21:44:46.741Z,160983.34
2018-04-25T21:47:14.269Z,160962.42
2018-04-25T21:49:41.951Z,160987.89
2018-04-25T21:52:09.656Z,160984.64
2018-04-25T21:54:37.537Z,160972.88
2018-04-25T21:57:05.311Z,161005.59
2018-04-25T21:59:32.865Z,160981.39
2018-04-25T22:02:00.439Z,160974.83
2018-04-25T22:04:28.252Z,160961.78
2018-04-25T22:06:55.828Z,160972.23
2018-04-25T22:09:23.397Z,161003.00
2018-04-25T22:11:50.955Z,161002.30
2018-04-25T22:14:18.656Z,161032.37
2018-04-25T22:16:46.203Z,161016.72
2018-04-25T22:19:13.741Z,161016.72
2018-04-25T22:21:41.501Z,161012.11
2018-04-25T22:24:09.052Z,161025.81
2018-04-25T22:26:36.660Z,161044.12
2018-04-25T22:29:04.210Z,161044.78
2018-04-25T22:31:31.807Z,161071.55
2018-04-25T22:33:59.399Z,161078.11
2018-04-25T22:36:26.995Z,161065.05
2018-04-25T22:38:54.522Z,161076.16
2018-04-25T22:41:22.415Z,161085.27
2018-04-25T22:43:50.093Z,161111.38
2018-04-25T22:46:17.655Z,161106.19
2018-04-25T22:48:45.596Z,161083.31
2018-04-25T22:51:13.299Z,161098.33
2018-04-25T22:53:40.992Z,161108.12
2018-04-25T22:56:08.799Z,161125.80
2018-04-25T22:58:36.329Z,161104.22
2018-04-25T23:01:03.871Z,161114.03
2018-04-25T23:03:31.421Z,161123.80
2018-04-25T23:05:59.202Z,161169.55
2018-04-25T23:08:26.749Z,161105.53
2018-04-25T23:10:54.478Z,161077.45
2018-04-25T23:18:11.744Z,161074.16
2018-04-25T23:20:39.272Z,161046.73
2018-04-25T23:23:06.835Z,161040.88
2018-04-25T23:25:34.407Z,160995.80
2018-04-25T23:28:01.945Z,161020.61
2018-04-25T23:30:29.501Z,161042.83
2018-04-25T23:32:57.182Z,161061.09
2018-04-25T23:35:24.965Z,161077.45
2018-04-25T23:37:52.501Z,161070.25
2018-04-25T23:40:20.066Z,161058.50
2018-04-25T23:42:47.651Z,161086.56
2018-04-25T23:45:15.208Z,161093.78
2018-04-25T23:47:42.764Z,161100.97
2018-04-25T23:50:10.531Z,161138.22
2018-04-25T23:52:38.079Z,161212.05
2018-04-25T23:55:05.799Z,161158.44
2018-04-25T23:57:33.383Z,161147.97
